Time;durP1;ratioP1;P1;durP2;ratioP2;P2;SDS_P1;SDS_P2;PMS_P1;PMS_P2;Temp;Humidity;BMP_temperature;BMP_pressure;BME280_temperature;BME280_humidity;BME280_pressure;Samples;Min_cycle;Max_cycle;Signal;HPM_P1;HPM_P2
2021/06/23 00:01:58;;;;;;;13.05;8.77;;;;;;;17.07;100.00;96713.22;5012499;28;20034;-67
2021/06/23 00:04:24;;;;;;;12.77;9.02;;;;;;;17.06;100.00;96714.41;5004537;28;20141;-65
2021/06/23 00:06:49;;;;;;;12.48;8.63;;;;;;;17.03;100.00;96706.16;5000501;28;20084;-66
2021/06/23 00:09:15;;;;;;;13.05;9.00;;;;;;;17.10;100.00;96711.63;4996902;28;20113;-65
2021/06/23 00:11:44;;;;;;;13.95;9.13;;;;;;;17.07;100.00;96720.72;4999578;28;20548;-65
2021/06/23 00:14:11;;;;;;;12.95;9.02;;;;;;;16.92;100.00;96709.78;4996203;28;20034;-65
2021/06/23 00:16:37;;;;;;;14.10;9.80;;;;;;;16.75;100.00;96716.25;5001379;28;20581;-66
2021/06/23 00:19:03;;;;;;;14.15;10.25;;;;;;;16.57;100.00;96719.91;5000532;28;20123;-66
2021/06/23 00:21:28;;;;;;;18.10;11.05;;;;;;;16.43;100.00;96714.47;5000542;28;20498;-64
2021/06/23 00:23:53;;;;;;;16.92;10.40;;;;;;;16.36;100.00;96709.00;5002653;28;20375;-65
2021/06/23 00:26:19;;;;;;;15.55;12.10;;;;;;;16.17;100.00;96715.81;4994444;28;20085;-67
2021/06/23 00:28:44;;;;;;;19.48;12.88;;;;;;;16.17;100.00;96716.63;4998839;28;20053;-66
2021/06/23 00:31:10;;;;;;;14.75;10.05;;;;;;;16.19;100.00;96725.28;4994655;28;20133;-64
2021/06/23 00:33:37;;;;;;;14.85;10.27;;;;;;;16.46;100.00;96719.19;4999931;28;20042;-64
2021/06/23 00:36:03;;;;;;;16.70;10.77;;;;;;;16.54;100.00;96725.47;4998867;28;20042;-65
2021/06/23 00:38:29;;;;;;;15.55;10.40;;;;;;;16.38;100.00;96725.97;4997733;28;20033;-65
2021/06/23 00:40:55;;;;;;;13.98;10.75;;;;;;;16.39;100.00;96741.38;5002230;28;20048;-65
2021/06/23 00:43:20;;;;;;;18.80;10.80;;;;;;;16.51;100.00;96740.09;4997215;28;20045;-65
2021/06/23 00:45:46;;;;;;;14.55;8.95;;;;;;;16.66;100.00;96755.41;4999511;28;20053;-65
2021/06/23 00:48:21;;;;;;;12.82;9.70;;;;;;;16.83;100.00;96762.03;4990770;28;20046;-66
2021/06/23 00:50:47;;;;;;;11.60;8.38;;;;;;;17.00;100.00;96768.63;5009347;28;20210;-66
2021/06/23 00:53:13;;;;;;;13.32;7.68;;;;;;;17.24;100.00;96777.91;5025820;28;20103;-65
2021/06/23 00:55:39;;;;;;;8.40;6.43;;;;;;;17.29;100.00;96774.69;5019543;28;20037;-66
2021/06/23 00:58:05;;;;;;;10.55;6.97;;;;;;;17.32;100.00;96784.97;4996874;28;20049;-66
2021/06/23 01:00:34;;;;;;;12.05;6.53;;;;;;;17.36;100.00;96785.72;5000931;28;20062;-65
2021/06/23 01:03:01;;;;;;;18.10;7.37;;;;;;;17.33;100.00;96778.22;5000199;28;20599;-65
2021/06/23 01:05:27;;;;;;;11.70;7.80;;;;;;;17.13;100.00;96774.44;4993659;28;20285;-67
2021/06/23 01:07:53;;;;;;;12.50;8.00;;;;;;;16.98;100.00;96769.03;5001935;28;20363;-67
2021/06/23 01:10:18;;;;;;;11.32;8.05;;;;;;;16.88;100.00;96780.97;4997306;28;20133;-65
2021/06/23 01:13:22;;;;;;;10.15;7.45;;;;;;;16.87;100.00;96781.34;5003388;28;20076;-66
2021/06/23 01:15:49;;;;;;;11.35;7.63;;;;;;;17.16;100.00;96793.78;5005181;28;20125;-66
2021/06/23 01:18:15;;;;;;;11.18;8.02;;;;;;;17.18;100.00;96794.16;5004482;28;20045;-66
2021/06/23 01:20:45;;;;;;;12.13;7.18;;;;;;;17.16;100.00;96793.78;4994345;28;20448;-66
2021/06/23 01:23:12;;;;;;;9.80;7.28;;;;;;;17.08;100.00;96788.72;5000798;28;20038;-65
2021/06/23 01:25:37;;;;;;;11.95;7.55;;;;;;;17.04;100.00;96785.19;5004782;28;20119;-66
2021/06/23 01:28:04;;;;;;;11.40;8.30;;;;;;;16.99;100.00;96781.66;4994320;28;20037;-67
2021/06/23 01:30:30;;;;;;;10.20;7.93;;;;;;;17.00;100.00;96772.19;5002366;28;20502;-65
2021/06/23 01:32:55;;;;;;;15.52;8.13;;;;;;;17.00;100.00;96765.88;5003392;28;20185;-65
2021/06/23 01:35:21;;;;;;;10.02;7.22;;;;;;;16.97;100.00;96766.66;4998963;28;20128;-66
2021/06/23 01:37:46;;;;;;;11.57;8.18;;;;;;;17.08;100.00;96761.81;5003872;28;20089;-67
2021/06/23 01:40:13;;;;;;;11.80;7.25;;;;;;;17.25;100.00;96760.13;5009688;28;20394;-65
2021/06/23 01:42:38;;;;;;;14.82;8.60;;;;;;;17.28;100.00;96755.72;5006995;28;20049;-66
2021/06/23 01:45:05;;;;;;;11.13;7.95;;;;;;;17.36;100.00;96749.72;4999629;28;20045;-67
2021/06/23 01:47:30;;;;;;;15.88;8.02;;;;;;;17.39;100.00;96753.63;5003654;28;20045;-66
2021/06/23 01:49:56;;;;;;;13.02;7.47;;;;;;;17.38;100.00;96747.31;5001808;28;20042;-65
2021/06/23 01:52:21;;;;;;;13.40;7.55;;;;;;;17.31;100.00;96744.63;4999442;28;20053;-66
2021/06/23 01:54:47;;;;;;;11.80;7.78;;;;;;;17.24;100.00;96738.38;4999871;28;20038;-66
2021/06/23 01:57:13;;;;;;;10.02;7.30;;;;;;;17.18;100.00;96749.88;4998469;28;20042;-66
2021/06/23 01:59:39;;;;;;;12.57;7.30;;;;;;;17.25;100.00;96748.25;5003228;28;20038;-66
2021/06/23 02:02:17;;;;;;;8.23;5.82;;;;;;;17.25;100.00;96751.00;4990896;28;20030;-65
2021/06/23 02:04:47;;;;;;;10.65;6.90;;;;;;;17.28;100.00;96756.50;5002020;28;20095;-67
2021/06/23 02:07:57;;;;;;;10.82;6.85;;;;;;;17.26;100.00;96758.13;4997244;28;20038;-66
2021/06/23 02:11:00;;;;;;;8.88;6.82;;;;;;;17.07;100.00;96743.66;4986354;28;20979;-67
2021/06/23 02:13:28;;;;;;;13.40;7.60;;;;;;;16.84;100.00;96740.69;4978691;28;20050;-66
2021/06/23 02:16:05;;;;;;;10.23;8.13;;;;;;;16.75;100.00;96733.59;4984529;28;20519;-67
2021/06/23 02:18:31;;;;;;;11.52;7.75;;;;;;;16.81;100.00;96734.72;4992170;28;20048;-66
2021/06/23 02:20:58;;;;;;;10.93;7.25;;;;;;;16.90;100.00;96726.00;5003959;28;20046;-66
2021/06/23 02:23:24;;;;;;;11.40;6.72;;;;;;;16.97;100.00;96725.94;4998886;28;20053;-66
2021/06/23 02:25:51;;;;;;;11.00;7.57;;;;;;;16.97;100.00;96723.19;5004164;28;20129;-65
2021/06/23 02:28:18;;;;;;;11.05;6.65;;;;;;;16.96;100.00;96723.59;4992872;28;20088;-68
2021/06/23 02:30:45;;;;;;;14.27;6.88;;;;;;;16.80;100.00;96735.16;5001937;28;20107;-66
2021/06/23 02:33:12;;;;;;;12.60;7.97;;;;;;;16.60;100.00;96730.16;4997291;28;20569;-67
2021/06/23 02:35:39;;;;;;;11.85;9.30;;;;;;;16.51;100.00;96734.56;5000475;28;20048;-66
2021/06/23 02:38:06;;;;;;;9.25;7.22;;;;;;;16.52;100.00;96756.28;4999340;28;20038;-67
2021/06/23 02:40:33;;;;;;;16.52;8.63;;;;;;;16.63;100.00;96751.47;5001363;28;20077;-66
2021/06/23 02:42:59;;;;;;;11.85;8.63;;;;;;;16.57;100.00;96744.00;5001937;28;20037;-66
2021/06/23 02:45:26;;;;;;;10.43;8.02;;;;;;;16.66;100.00;96741.56;4999268;28;20049;-66
2021/06/23 02:47:52;;;;;;;14.60;8.38;;;;;;;16.73;100.00;96738.75;5003633;28;20072;-66
2021/06/23 02:50:18;;;;;;;12.85;8.88;;;;;;;16.40;100.00;96740.97;4998570;28;20045;-65
2021/06/23 02:52:43;;;;;;;20.45;9.98;;;;;;;15.97;100.00;96737.59;5002864;28;20175;-67
2021/06/23 02:55:10;;;;;;;16.08;10.90;;;;;;;15.77;100.00;96731.78;4997659;28;20046;-65
2021/06/23 02:57:36;;;;;;;19.83;11.18;;;;;;;15.71;100.00;96736.13;5001139;28;20515;-65
2021/06/23 03:00:07;;;;;;;16.48;11.90;;;;;;;15.64;100.00;96742.44;4999380;28;20060;-69
2021/06/23 03:02:33;;;;;;;20.27;12.85;;;;;;;15.62;100.00;96742.84;5002589;28;20033;-67
2021/06/23 03:04:58;;;;;;;19.40;12.60;;;;;;;15.59;100.00;96737.31;5003082;28;20048;-67
2021/06/23 03:07:24;;;;;;;18.85;12.57;;;;;;;15.51;100.00;96744.06;4997952;28;20539;-66
2021/06/23 03:09:49;;;;;;;21.98;12.75;;;;;;;15.49;100.00;96744.47;5003877;28;20064;-68
2021/06/23 03:12:16;;;;;;;25.52;12.75;;;;;;;15.48;100.00;96746.44;4996512;28;20422;-66
2021/06/23 03:14:42;;;;;;;24.52;13.30;;;;;;;15.51;100.00;96742.09;4999944;28;20065;-65
2021/06/23 03:17:09;;;;;;;21.25;13.45;;;;;;;15.54;100.00;96748.78;4996006;28;20042;-66
2021/06/23 03:19:34;;;;;;;16.98;12.38;;;;;;;15.55;100.00;96739.31;5003876;28;20192;-65
2021/06/23 03:22:08;;;;;;;17.98;12.48;;;;;;;15.43;100.00;96740.50;4993964;28;20494;-64
2021/06/23 03:24:37;;;;;;;18.35;12.15;;;;;;;15.41;100.00;96740.94;5008594;28;20386;-65
2021/06/23 03:27:03;;;;;;;18.95;11.57;;;;;;;15.38;100.00;96746.47;5011987;28;20040;-66
2021/06/23 03:29:32;;;;;;;17.50;12.00;;;;;;;15.39;100.00;96735.00;5017027;28;20045;-65
2021/06/23 03:31:59;;;;;;;21.40;11.55;;;;;;;15.41;100.00;96740.13;5009576;28;21004;-64
2021/06/23 03:34:25;;;;;;;17.35;11.80;;;;;;;15.39;100.00;96746.03;4996626;28;20441;-65
2021/06/23 03:36:51;;;;;;;14.85;10.93;;;;;;;15.42;100.00;96753.53;5002761;28;20050;-68
2021/06/23 03:39:17;;;;;;;18.88;11.40;;;;;;;15.48;100.00;96742.88;4996472;28;20402;-64
2021/06/23 03:41:43;;;;;;;22.33;11.45;;;;;;;15.39;100.00;96736.97;5004177;28;20048;-64
2021/06/23 03:44:08;;;;;;;16.73;12.43;;;;;;;15.34;100.00;96732.66;5006270;28;20530;-64
2021/06/23 03:46:34;;;;;;;22.05;13.00;;;;;;;15.33;100.00;96735.81;5002367;28;20099;-66
2021/06/23 03:48:59;;;;;;;19.77;12.00;;;;;;;15.47;100.00;96739.31;5006732;28;20125;-66
2021/06/23 03:51:25;;;;;;;21.27;14.25;;;;;;;15.47;100.00;96736.56;5002029;28;20115;-66
2021/06/23 03:53:51;;;;;;;24.30;13.02;;;;;;;15.45;100.00;96741.69;5002595;28;20532;-64
2021/06/23 03:56:17;;;;;;;19.17;14.10;;;;;;;15.45;100.00;96730.66;4994825;28;20133;-66
2021/06/23 03:58:42;;;;;;;18.20;13.55;;;;;;;15.51;100.00;96731.03;5001903;28;20115;-66
2021/06/23 04:01:08;;;;;;;20.27;14.32;;;;;;;15.56;100.00;96727.88;4996300;28;20084;-67
2021/06/23 04:03:34;;;;;;;22.10;14.00;;;;;;;15.56;100.00;96724.34;5000634;28;20041;-66
2021/06/23 04:05:59;;;;;;;21.00;14.90;;;;;;;15.57;100.00;96732.19;5001278;28;20108;-65
2021/06/23 04:08:25;;;;;;;22.80;16.00;;;;;;;15.56;100.00;96729.84;5000667;28;20052;-65
2021/06/23 04:10:50;;;;;;;28.05;17.15;;;;;;;15.55;100.00;96726.28;5008735;28;20077;-65
2021/06/23 04:13:16;;;;;;;22.05;15.02;;;;;;;15.52;100.00;96726.31;4995195;28;20041;-66
2021/06/23 04:15:41;;;;;;;22.70;14.93;;;;;;;15.53;100.00;96725.91;5001243;28;20056;-65
2021/06/23 04:18:07;;;;;;;20.67;14.25;;;;;;;15.55;100.00;96731.81;4995425;28;20065;-66
2021/06/23 04:20:32;;;;;;;23.50;14.70;;;;;;;15.55;100.00;96726.28;4998900;28;20042;-66
2021/06/23 04:22:58;;;;;;;19.45;13.75;;;;;;;15.56;100.00;96730.63;4998196;28;20033;-64
2021/06/23 04:25:23;;;;;;;20.45;13.40;;;;;;;15.61;100.00;96735.75;4993327;28;20112;-65
2021/06/23 04:27:48;;;;;;;24.33;13.80;;;;;;;15.63;100.00;96740.88;5000733;28;20041;-65
2021/06/23 04:30:15;;;;;;;20.50;13.27;;;;;;;15.64;100.00;96723.91;4996355;28;20034;-64
2021/06/23 04:32:41;;;;;;;18.58;12.57;;;;;;;15.65;100.00;96716.41;5001158;28;20050;-67
2021/06/23 04:35:08;;;;;;;18.20;11.90;;;;;;;15.75;100.00;96725.88;4996690;28;20148;-64
2021/06/23 04:37:35;;;;;;;16.52;10.73;;;;;;;15.84;100.00;96738.06;5000766;28;20045;-66
2021/06/23 04:40:01;;;;;;;15.05;11.13;;;;;;;15.98;100.00;96741.97;4982093;28;20140;-65
2021/06/23 04:42:27;;;;;;;15.63;10.80;;;;;;;16.08;100.00;96743.91;4989975;28;20049;-64
2021/06/23 04:44:53;;;;;;;17.10;10.60;;;;;;;16.13;100.00;96743.44;5000205;28;20038;-65
2021/06/23 04:47:19;;;;;;;13.65;10.05;;;;;;;16.36;100.00;96747.69;4995633;28;20056;-64
2021/06/23 04:49:44;;;;;;;15.43;9.82;;;;;;;17.12;100.00;96750.72;4999245;28;20407;-65
2021/06/23 04:52:10;;;;;;;12.73;7.72;;;;;;;17.59;100.00;96742.75;4995758;28;20033;-66
2021/06/23 04:54:35;;;;;;;10.13;7.22;;;;;;;17.76;98.72;96747.31;4999902;28;20306;-65
2021/06/23 04:57:00;;;;;;;10.23;7.07;;;;;;;17.73;99.75;96748.13;5001616;28;20164;-65
2021/06/23 04:59:27;;;;;;;8.73;6.75;;;;;;;17.75;98.81;96739.41;4996712;28;20050;-65
2021/06/23 05:01:53;;;;;;;13.10;7.15;;;;;;;17.40;100.00;96735.84;4999827;28;20510;-66
2021/06/23 05:04:18;;;;;;;11.20;6.75;;;;;;;17.47;100.00;96740.53;4993914;28;20042;-64
2021/06/23 05:06:43;;;;;;;8.63;6.00;;;;;;;17.31;100.00;96739.09;4998303;28;20388;-64
2021/06/23 05:09:09;;;;;;;8.70;5.80;;;;;;;17.07;100.00;96740.09;4993952;28;20048;-65
2021/06/23 05:11:34;;;;;;;9.77;5.93;;;;;;;17.12;100.00;96728.59;5000838;28;20046;-64
2021/06/23 05:14:01;;;;;;;9.35;6.50;;;;;;;17.08;100.00;96736.91;4998981;28;20044;-65
2021/06/23 05:16:27;;;;;;;9.85;5.47;;;;;;;17.27;100.00;96741.13;4995870;28;20120;-65
2021/06/23 05:18:54;;;;;;;9.73;5.75;;;;;;;17.68;100.00;96739.50;5001517;28;20394;-65
2021/06/23 05:21:20;;;;;;;6.93;4.78;;;;;;;18.04;97.47;96742.69;4998214;28;20049;-65
2021/06/23 05:23:46;;;;;;;8.07;4.82;;;;;;;18.28;95.84;96746.31;5000545;28;20050;-65
2021/06/23 05:26:12;;;;;;;5.85;4.43;;;;;;;18.39;92.22;96745.41;5003403;28;20038;-66
2021/06/23 05:28:37;;;;;;;5.45;3.78;;;;;;;18.18;93.58;96743.69;5013647;28;20490;-67
2021/06/23 05:31:03;;;;;;;4.47;3.53;;;;;;;17.89;94.82;96741.28;5007249;28;20046;-66
2021/06/23 05:33:28;;;;;;;5.13;3.88;;;;;;;17.99;95.57;96743.16;5003611;28;20045;-66
2021/06/23 05:35:54;;;;;;;5.50;3.70;;;;;;;18.16;94.20;96749.66;5000111;28;20088;-66
2021/06/23 05:38:19;;;;;;;8.25;4.72;;;;;;;18.37;93.27;96750.59;4997433;28;20053;-65
2021/06/23 05:40:46;;;;;;;5.82;4.03;;;;;;;18.66;91.01;96765.59;4999489;28;20053;-65
2021/06/23 05:43:11;;;;;;;4.55;3.22;;;;;;;18.93;89.18;96767.63;4994614;28;20046;-64
2021/06/23 05:45:37;;;;;;;7.45;3.60;;;;;;;18.83;88.89;96763.00;4997156;28;20048;-65
2021/06/23 05:48:02;;;;;;;4.75;2.78;;;;;;;18.70;89.49;96776.66;4998531;28;20485;-64
2021/06/23 05:50:28;;;;;;;6.75;3.47;;;;;;;18.54;89.66;96771.72;4997154;28;20113;-64
2021/06/23 05:52:53;;;;;;;5.53;2.85;;;;;;;18.14;90.78;96765.91;5000322;28;20400;-66
2021/06/23 05:55:21;;;;;;;5.55;2.40;;;;;;;18.30;90.95;96779.19;4994751;28;20057;-65
2021/06/23 05:57:51;;;;;;;3.83;2.40;;;;;;;18.44;90.87;96779.00;5000625;28;20049;-64
2021/06/23 06:00:22;;;;;;;3.38;2.28;;;;;;;18.87;88.67;96781.19;4996359;28;20053;-64
2021/06/23 06:02:47;;;;;;;4.28;2.08;;;;;;;19.16;86.10;96777.97;5007598;28;20053;-66
2021/06/23 06:05:14;;;;;;;5.57;2.15;;;;;;;19.35;85.02;96775.66;5011110;28;20045;-68
2021/06/23 06:07:39;;;;;;;6.75;2.08;;;;;;;19.61;84.74;96779.59;5008404;28;20068;-67
2021/06/23 06:10:05;;;;;;;5.88;1.95;;;;;;;21.25;77.28;96779.31;4997301;28;20034;-64
2021/06/23 06:12:31;;;;;;;5.75;2.20;;;;;;;21.41;77.04;96784.91;5002323;28;20045;-65
2021/06/23 06:14:56;;;;;;;3.25;1.92;;;;;;;21.36;77.56;96783.41;5002949;28;20041;-65
2021/06/23 06:17:22;;;;;;;3.22;1.80;;;;;;;21.54;74.96;96777.41;4999663;28;20342;-64
2021/06/23 06:19:47;;;;;;;2.83;1.90;;;;;;;22.03;72.54;96784.09;5004475;28;20054;-64
2021/06/23 06:22:12;;;;;;;4.47;1.70;;;;;;;22.22;71.96;96785.13;5005194;28;20041;-65
2021/06/23 06:24:38;;;;;;;3.58;1.50;;;;;;;22.35;69.84;96772.06;5011994;28;20084;-64
2021/06/23 06:27:04;;;;;;;4.72;1.65;;;;;;;22.76;68.80;96770.44;5013042;28;20109;-65
2021/06/23 06:29:29;;;;;;;2.58;1.40;;;;;;;22.94;68.09;96769.88;5001986;28;20100;-65
2021/06/23 06:31:55;;;;;;;2.25;1.30;;;;;;;22.67;68.89;96770.28;5001699;28;20046;-64
2021/06/23 06:34:20;;;;;;;2.17;1.35;;;;;;;22.31;69.95;96772.16;4994136;28;20080;-63
2021/06/23 06:36:46;;;;;;;2.67;1.23;;;;;;;21.83;71.19;96778.66;5001467;28;20053;-67
2021/06/23 06:39:11;;;;;;;2.78;1.27;;;;;;;21.57;72.82;96770.16;4996982;28;20038;-64
2021/06/23 06:41:37;;;;;;;2.70;1.35;;;;;;;21.44;72.63;96774.88;5000488;28;20061;-65
2021/06/23 06:44:02;;;;;;;3.58;1.30;;;;;;;21.30;72.80;96776.81;4992247;28;20141;-67
2021/06/23 06:46:27;;;;;;;2.83;1.63;;;;;;;21.34;73.84;96776.72;4999662;28;20056;-65
2021/06/23 06:48:53;;;;;;;2.20;1.30;;;;;;;21.41;73.87;96778.53;5003304;28;20045;-65
2021/06/23 06:51:18;;;;;;;3.25;1.38;;;;;;;21.34;73.16;96774.72;5004151;28;20556;-65
2021/06/23 06:53:44;;;;;;;2.60;1.00;;;;;;;21.21;73.33;96784.97;5013377;28;20054;-65
2021/06/23 06:56:09;;;;;;;1.38;0.75;;;;;;;21.60;72.05;96783.22;4999006;28;20040;-65
2021/06/23 06:58:35;;;;;;;1.58;0.95;;;;;;;22.19;69.64;96780.47;4999009;28;20388;-65
2021/06/23 07:01:00;;;;;;;1.00;0.70;;;;;;;22.50;68.34;96775.19;5002542;28;20065;-65
2021/06/23 07:03:26;;;;;;;2.83;1.00;;;;;;;22.46;66.36;96775.31;4994401;28;20081;-64
2021/06/23 07:05:51;;;;;;;6.18;1.15;;;;;;;22.16;68.45;96784.91;5001185;28;20038;-64
2021/06/23 07:08:17;;;;;;;2.17;0.82;;;;;;;22.29;67.45;96782.19;4998270;28;20053;-65
2021/06/23 07:10:43;;;;;;;1.00;0.70;;;;;;;22.66;66.22;96786.25;5002312;28;20050;-65
2021/06/23 07:13:08;;;;;;;2.13;0.98;;;;;;;23.66;62.09;96787.09;4997048;28;20153;-64
2021/06/23 07:15:33;;;;;;;4.28;0.95;;;;;;;24.84;58.20;96781.25;5000909;28;20066;-64
2021/06/23 07:17:59;;;;;;;1.67;0.80;;;;;;;26.15;56.27;96776.25;5001926;28;20042;-65
2021/06/23 07:20:25;;;;;;;2.03;0.70;;;;;;;26.86;52.50;96779.84;4996677;28;20037;-66
2021/06/23 07:22:50;;;;;;;2.00;0.60;;;;;;;27.98;48.86;96786.44;5001451;28;20050;-65
2021/06/23 07:25:16;;;;;;;3.97;1.08;;;;;;;28.17;49.36;96778.63;4994429;28;20061;-66
2021/06/23 07:27:42;;;;;;;1.10;0.60;;;;;;;28.33;48.94;96780.19;5000814;28;20046;-64
2021/06/23 07:30:08;;;;;;;0.38;0.32;;;;;;;29.88;42.17;96775.16;4999744;28;20064;-65
2021/06/23 07:32:49;;;;;;;1.58;0.60;;;;;;;29.90;42.98;96776.22;5003937;28;20129;-65
2021/06/23 07:38:00;;;;;;;4.15;0.82;;;;;;;29.74;43.81;96785.22;5001198;28;20457;-65
2021/06/23 07:40:43;;;;;;;1.05;0.35;;;;;;;29.70;43.11;96784.66;4997603;28;20101;-65
2021/06/23 07:43:10;;;;;;;1.27;0.40;;;;;;;28.64;44.98;96785.38;4996417;28;20045;-65
2021/06/23 07:45:37;;;;;;;1.48;0.93;;;;;;;28.20;47.60;96786.09;5003635;28;20072;-65
2021/06/23 07:48:03;;;;;;;3.50;0.52;;;;;;;25.43;51.63;96789.75;4989117;28;20420;-66
2021/06/23 07:50:35;;;;;;;3.75;0.65;;;;;;;25.74;53.49;96789.63;4999635;28;20042;-65
2021/06/23 07:53:15;;;;;;;1.42;0.70;;;;;;;25.02;53.75;96794.56;5001691;28;20099;-65
2021/06/23 07:55:44;;;;;;;1.73;0.77;;;;;;;25.14;54.97;96788.84;5000440;28;20507;-65
2021/06/23 08:09:05;;;;;;;3.72;1.10;;;;;;;24.46;56.37;96776.69;5003855;28;20042;-64
2021/06/23 08:11:36;;;;;;;1.60;0.77;;;;;;;22.98;61.25;96775.34;5001158;28;20104;-63
2021/06/23 08:14:04;;;;;;;3.28;1.00;;;;;;;22.55;62.48;96774.66;5001727;28;20037;-64
2021/06/23 08:16:33;;;;;;;2.97;1.00;;;;;;;22.66;62.68;96768.75;5000556;28;20513;-64
2021/06/23 08:18:58;;;;;;;1.55;0.80;;;;;;;23.13;58.46;96770.88;5002141;28;20115;-64
2021/06/23 08:21:24;;;;;;;1.98;1.05;;;;;;;22.88;62.86;96769.63;4995800;28;20058;-64
2021/06/23 08:23:50;;;;;;;1.70;0.75;;;;;;;21.86;65.54;96769.41;5001722;28;20037;-64
2021/06/23 08:26:15;;;;;;;3.50;0.77;;;;;;;22.83;60.86;96775.00;4994735;28;20044;-65
2021/06/23 08:28:40;;;;;;;1.70;1.10;;;;;;;22.59;60.55;96774.53;5000790;28;20115;-65
2021/06/23 08:31:06;;;;;;;1.65;0.95;;;;;;;22.53;62.39;96772.28;4995308;28;20498;-65
2021/06/23 08:33:31;;;;;;;1.35;1.20;;;;;;;23.18;60.31;96777.94;5000801;28;20083;-65
2021/06/23 08:35:57;;;;;;;1.48;0.88;;;;;;;23.77;60.25;96769.94;4999798;28;20510;-65
2021/06/23 08:38:23;;;;;;;1.60;1.13;;;;;;;22.87;61.54;96768.06;4995371;28;20847;-64
2021/06/23 08:40:50;;;;;;;1.90;1.30;;;;;;;22.07;63.71;96770.81;5009159;28;20083;-65
2021/06/23 08:43:17;;;;;;;5.18;1.00;;;;;;;22.93;62.73;96773.09;5009020;28;20042;-65
2021/06/23 08:45:43;;;;;;;2.30;1.20;;;;;;;22.65;61.16;96779.13;5005493;28;20049;-64
2021/06/23 08:48:10;;;;;;;2.42;0.93;;;;;;;23.79;60.17;96776.66;4995194;28;20444;-62
2021/06/23 08:50:36;;;;;;;1.33;0.90;;;;;;;24.22;58.46;96774.38;5000028;28;20060;-65
2021/06/23 08:53:02;;;;;;;1.88;0.80;;;;;;;25.55;52.27;96766.38;4999272;28;20038;-65
2021/06/23 08:55:27;;;;;;;1.52;1.02;;;;;;;24.67;54.29;96766.69;4995186;28;20112;-64
2021/06/23 08:57:53;;;;;;;3.30;1.38;;;;;;;25.08;54.17;96771.06;5017519;28;20191;-65
2021/06/23 09:00:21;;;;;;;2.13;1.10;;;;;;;25.33;54.58;96770.06;4998712;28;20503;-64
2021/06/23 09:02:47;;;;;;;3.25;0.90;;;;;;;25.40;53.51;96759.81;5002350;28;20124;-64
2021/06/23 09:05:16;;;;;;;2.58;0.80;;;;;;;24.08;56.41;96766.50;4995081;28;20111;-63
2021/06/23 09:07:53;;;;;;;1.83;1.30;;;;;;;22.68;58.93;96764.25;5000089;28;20469;-63
2021/06/23 09:10:21;;;;;;;3.50;1.00;;;;;;;23.11;58.68;96762.16;4995087;28;20136;-65
2021/06/23 09:13:01;;;;;;;1.88;1.10;;;;;;;23.23;56.47;96755.78;5002980;28;20057;-64
2021/06/23 09:15:51;;;;;;;1.85;0.95;;;;;;;23.37;58.80;96762.13;4996253;28;20123;-64
2021/06/23 09:18:22;;;;;;;1.27;0.60;;;;;;;23.65;58.70;96754.78;4994694;28;20046;-65
2021/06/23 09:20:51;;;;;;;1.70;0.90;;;;;;;22.85;56.72;96752.97;4997331;28;20136;-64
2021/06/23 09:23:17;;;;;;;1.60;0.90;;;;;;;23.47;57.96;96753.38;4995887;28;20050;-64
2021/06/23 09:25:46;;;;;;;1.10;0.80;;;;;;;23.06;57.98;96751.56;4999976;28;20045;-65
2021/06/23 09:28:17;;;;;;;1.83;1.08;;;;;;;24.18;57.04;96749.31;4993035;28;20076;-64
2021/06/23 09:30:47;;;;;;;2.45;1.05;;;;;;;25.55;52.32;96747.53;4999242;28;20046;-66
2021/06/23 09:33:26;;;;;;;2.88;1.40;;;;;;;25.42;53.09;96741.28;4994618;28;20042;-64
2021/06/23 09:36:04;;;;;;;1.25;1.00;;;;;;;24.88;53.32;96751.84;4999397;28;20511;-63
2021/06/23 09:38:43;;;;;;;2.20;1.67;;;;;;;23.32;57.67;96746.72;5001931;28;20046;-64
2021/06/23 09:41:24;;;;;;;3.47;1.40;;;;;;;23.27;58.05;96730.50;4979340;28;20049;-63
2021/06/23 09:43:53;;;;;;;2.65;1.40;;;;;;;23.33;58.28;96741.91;5004651;28;20058;-63
2021/06/23 09:46:25;;;;;;;3.10;1.60;;;;;;;23.73;57.72;96744.13;4998711;28;20034;-63
2021/06/23 09:49:05;;;;;;;2.17;1.70;;;;;;;23.49;58.46;96736.16;5007711;28;20073;-65
2021/06/23 09:51:39;;;;;;;2.85;1.40;;;;;;;24.04;57.55;96730.25;5002658;28;20438;-63
2021/06/23 09:54:05;;;;;;;1.90;1.45;;;;;;;23.51;57.82;96736.47;4998856;28;20121;-66
2021/06/23 09:56:42;;;;;;;6.90;1.40;;;;;;;24.54;55.93;96724.81;5007454;28;20076;-65
2021/06/23 09:59:08;;;;;;;2.53;1.58;;;;;;;24.29;54.65;96729.31;4998700;28;20069;-64
2021/06/23 10:01:38;;;;;;;3.63;1.95;;;;;;;23.52;57.50;96726.88;5004052;28;20073;-64
2021/06/23 10:04:08;;;;;;;3.45;1.45;;;;;;;23.43;57.14;96726.78;4979609;28;20050;-65
2021/06/23 10:06:38;;;;;;;;;;;;;;;25.16;54.67;96719.09;4984064;28;20053;-64
2021/06/23 10:09:25;;;;;;;1.70;1.35;;;;;;;24.74;55.84;96716.00;4994455;28;20647;-65
2021/06/23 10:11:57;;;;;;;4.38;1.60;;;;;;;24.61;54.70;96721.72;5005127;28;20466;-64
2021/06/23 10:14:27;;;;;;;1.83;1.13;;;;;;;25.10;51.79;96728.56;4999981;28;20360;-65
2021/06/23 10:16:53;;;;;;;2.72;1.48;;;;;;;24.30;55.94;96730.88;5003792;28;20050;-66
2021/06/23 10:19:21;;;;;;;4.47;1.95;;;;;;;24.38;54.87;96720.97;4998602;28;20088;-64
2021/06/23 10:21:47;;;;;;;3.08;1.40;;;;;;;23.54;55.54;96732.78;5003126;28;20080;-64
2021/06/23 10:24:14;;;;;;;2.67;1.40;;;;;;;24.34;56.53;96728.72;5000767;28;20080;-65
2021/06/23 10:26:48;;;;;;;2.15;1.05;;;;;;;25.06;54.21;96730.75;5002815;28;20069;-63
2021/06/23 10:29:18;;;;;;;2.45;1.30;;;;;;;24.18;55.32;96728.94;4999700;28;20073;-65
2021/06/23 10:31:45;;;;;;;3.25;1.13;;;;;;;24.84;54.75;96725.25;5005370;28;20034;-63
2021/06/23 10:34:10;;;;;;;5.32;1.90;;;;;;;24.56;55.40;96725.91;4998635;28;20398;-63
2021/06/23 10:36:36;;;;;;;3.13;1.20;;;;;;;25.22;53.11;96721.28;5013905;28;20057;-65
2021/06/23 10:39:04;;;;;;;2.13;1.23;;;;;;;24.83;54.44;96726.47;5007698;28;20046;-65
2021/06/23 10:41:35;;;;;;;3.10;1.00;;;;;;;24.95;54.40;96723.56;5000964;28;20049;-65
2021/06/23 10:44:14;;;;;;;3.38;1.10;;;;;;;24.98;53.91;96707.84;5000542;28;20061;-65
2021/06/23 10:46:40;;;;;;;;;;;;;;;24.36;55.87;96703.06;5003038;28;20099;-65
2021/06/23 10:49:05;;;;;;;1.88;1.10;;;;;;;24.11;54.75;96707.63;5011668;28;20353;-66
2021/06/23 10:51:30;;;;;;;1.60;1.10;;;;;;;23.18;58.80;96703.25;5004484;28;20449;-63
2021/06/23 10:53:56;;;;;;;3.85;1.30;;;;;;;23.12;59.25;96701.47;5006999;28;20394;-66
2021/06/23 10:56:44;;;;;;;1.60;1.10;;;;;;;23.36;58.29;96704.69;4998205;28;20539;-65
2021/06/23 10:59:33;;;;;;;2.45;1.33;;;;;;;23.87;56.72;96700.91;4985576;28;20038;-64
2021/06/23 11:02:09;;;;;;;4.53;1.30;;;;;;;23.85;57.09;96704.94;4994811;28;20449;-64
2021/06/23 11:05:02;;;;;;;2.55;1.48;;;;;;;24.59;54.19;96702.56;5004700;28;20046;-63
2021/06/23 11:07:35;;;;;;;3.13;0.98;;;;;;;25.04;52.78;96703.19;4997629;28;20506;-63
2021/06/23 11:10:16;;;;;;;2.80;0.95;;;;;;;24.85;51.66;96709.97;5001946;28;20129;-63
2021/06/23 11:12:54;;;;;;;2.58;0.98;;;;;;;25.43;52.76;96697.22;5001664;28;20612;-64
2021/06/23 11:15:32;;;;;;;3.92;1.02;;;;;;;24.35;54.82;96704.31;5000323;28;20494;-66
2021/06/23 11:18:18;;;;;;;1.90;1.00;;;;;;;24.65;55.56;96697.19;5009797;28;20054;-65
2021/06/23 11:20:55;;;;;;;3.25;0.90;;;;;;;24.53;50.32;96703.66;5003209;28;20034;-63
2021/06/23 11:23:51;;;;;;;3.53;0.93;;;;;;;24.59;50.34;96701.81;4996298;28;20052;-63
2021/06/23 11:26:20;;;;;;;1.85;0.90;;;;;;;24.68;52.22;96698.25;4996124;28;20495;-64
2021/06/23 11:28:47;;;;;;;;;;;;;;;24.29;52.40;96692.94;5005670;28;20069;-64
2021/06/23 11:31:12;;;;;;;2.03;0.80;;;;;;;24.74;48.88;96682.41;5006001;28;19936;-64
2021/06/23 11:33:38;;;;;;;2.00;0.88;;;;;;;25.74;48.87;96672.59;5007513;28;20502;-64
2021/06/23 11:36:18;;;;;;;2.80;1.10;;;;;;;25.85;49.41;96679.75;5001684;28;20402;-64
2021/06/23 11:38:45;;;;;;;2.88;0.82;;;;;;;25.32;50.97;96684.44;5002095;28;20288;-64
2021/06/23 11:41:11;;;;;;;4.65;1.00;;;;;;;26.28;49.46;96683.44;4997741;28;20116;-65
2021/06/23 11:43:37;;;;;;;3.67;0.90;;;;;;;26.41;46.74;96683.22;5001825;28;20514;-65